sensor_id;sensor_type;location;lat;lon;timestamp;pressure;altitude;pressure_sealevel;temperature;humidity
5609;BME280;2826;51.354;9.588;2023-03-22T00:01:08;97767.59;;;11.02;80.16
5609;BME280;2826;51.354;9.588;2023-03-22T00:03:35;97766.91;;;10.98;80.12
5609;BME280;2826;51.354;9.588;2023-03-22T00:06:03;97767.41;;;10.87;80.61
5609;BME280;2826;51.354;9.588;2023-03-22T00:08:29;97767.06;;;10.76;81.38
5609;BME280;2826;51.354;9.588;2023-03-22T00:10:56;97766.50;;;10.88;81.24
5609;BME280;2826;51.354;9.588;2023-03-22T00:13:22;97764.63;;;10.92;80.72
5609;BME280;2826;51.354;9.588;2023-03-22T00:15:49;97763.09;;;10.88;80.92
5609;BME280;2826;51.354;9.588;2023-03-22T00:18:17;97763.91;;;10.88;81.12
5609;BME280;2826;51.354;9.588;2023-03-22T00:20:47;97752.84;;;10.84;80.98
5609;BME280;2826;51.354;9.588;2023-03-22T00:23:14;97758.53;;;10.74;81.70
5609;BME280;2826;51.354;9.588;2023-03-22T00:25:42;97756.94;;;10.71;81.33
5609;BME280;2826;51.354;9.588;2023-03-22T00:28:09;97753.22;;;10.77;81.61
5609;BME280;2826;51.354;9.588;2023-03-22T00:30:35;97754.88;;;10.78;81.83
5609;BME280;2826;51.354;9.588;2023-03-22T00:33:02;97747.19;;;10.76;81.56
5609;BME280;2826;51.354;9.588;2023-03-22T00:35:30;97751.31;;;10.80;81.38
5609;BME280;2826;51.354;9.588;2023-03-22T00:37:57;97738.63;;;10.74;81.44
5609;BME280;2826;51.354;9.588;2023-03-22T00:40:31;97747.72;;;10.83;81.07
5609;BME280;2826;51.354;9.588;2023-03-22T00:42:58;97744.03;;;10.69;81.73
5609;BME280;2826;51.354;9.588;2023-03-22T00:45:27;97746.41;;;10.74;81.77
5609;BME280;2826;51.354;9.588;2023-03-22T00:47:53;97746.50;;;10.73;81.74
5609;BME280;2826;51.354;9.588;2023-03-22T00:50:20;97739.41;;;10.76;81.84
5609;BME280;2826;51.354;9.588;2023-03-22T00:52:48;97738.16;;;10.66;82.07
5609;BME280;2826;51.354;9.588;2023-03-22T00:55:14;97737.03;;;10.71;82.72
5609;BME280;2826;51.354;9.588;2023-03-22T00:57:41;97732.81;;;10.69;82.84
5609;BME280;2826;51.354;9.588;2023-03-22T01:00:09;97734.28;;;10.75;82.31
5609;BME280;2826;51.354;9.588;2023-03-22T01:02:38;97730.75;;;10.76;82.69
5609;BME280;2826;51.354;9.588;2023-03-22T01:05:08;97728.66;;;10.84;82.16
5609;BME280;2826;51.354;9.588;2023-03-22T01:07:41;97722.97;;;10.76;82.31
5609;BME280;2826;51.354;9.588;2023-03-22T01:10:10;97735.00;;;10.78;82.96
5609;BME280;2826;51.354;9.588;2023-03-22T01:12:37;97727.28;;;10.77;82.55
5609;BME280;2826;51.354;9.588;2023-03-22T01:15:05;97720.56;;;10.73;82.89
5609;BME280;2826;51.354;9.588;2023-03-22T01:17:32;97707.03;;;10.66;83.12
5609;BME280;2826;51.354;9.588;2023-03-22T01:19:59;97698.56;;;10.62;83.08
5609;BME280;2826;51.354;9.588;2023-03-22T01:22:25;97696.94;;;10.59;82.90
5609;BME280;2826;51.354;9.588;2023-03-22T01:24:53;97716.50;;;10.67;83.60
5609;BME280;2826;51.354;9.588;2023-03-22T01:27:21;97714.47;;;10.54;84.13
5609;BME280;2826;51.354;9.588;2023-03-22T01:29:47;97703.22;;;10.73;83.31
5609;BME280;2826;51.354;9.588;2023-03-22T01:32:14;97702.00;;;10.63;83.77
5609;BME280;2826;51.354;9.588;2023-03-22T01:34:40;97694.63;;;10.73;83.69
5609;BME280;2826;51.354;9.588;2023-03-22T01:37:07;97695.88;;;10.64;83.46
5609;BME280;2826;51.354;9.588;2023-03-22T01:39:37;97692.09;;;10.71;83.42
5609;BME280;2826;51.354;9.588;2023-03-22T01:42:11;97644.47;;;10.35;83.38
5609;BME280;2826;51.354;9.588;2023-03-22T01:44:40;97687.06;;;10.68;83.25
5609;BME280;2826;51.354;9.588;2023-03-22T01:47:07;97691.13;;;10.74;83.45
5609;BME280;2826;51.354;9.588;2023-03-22T01:49:36;97692.25;;;10.68;83.49
5609;BME280;2826;51.354;9.588;2023-03-22T01:52:07;97685.16;;;10.71;83.70
5609;BME280;2826;51.354;9.588;2023-03-22T01:54:47;97658.22;;;10.56;83.49
5609;BME280;2826;51.354;9.588;2023-03-22T01:57:25;97678.53;;;10.66;84.01
5609;BME280;2826;51.354;9.588;2023-03-22T01:59:53;97680.88;;;10.70;83.85
5609;BME280;2826;51.354;9.588;2023-03-22T02:02:39;97679.75;;;10.76;83.11
5609;BME280;2826;51.354;9.588;2023-03-22T02:05:17;97677.84;;;10.80;83.04
5609;BME280;2826;51.354;9.588;2023-03-22T02:07:48;97683.94;;;10.79;83.21
5609;BME280;2826;51.354;9.588;2023-03-22T02:10:16;97681.66;;;10.73;83.79
5609;BME280;2826;51.354;9.588;2023-03-22T02:13:05;97679.59;;;10.79;82.79
5609;BME280;2826;51.354;9.588;2023-03-22T02:15:56;97677.22;;;10.75;82.83
5609;BME280;2826;51.354;9.588;2023-03-22T02:18:58;97683.63;;;10.67;83.60
5609;BME280;2826;51.354;9.588;2023-03-22T02:21:51;97672.47;;;10.65;83.08
5609;BME280;2826;51.354;9.588;2023-03-22T02:27:34;97672.72;;;10.61;83.40
5609;BME280;2826;51.354;9.588;2023-03-22T02:30:20;97666.06;;;10.55;83.80
5609;BME280;2826;51.354;9.588;2023-03-22T02:33:12;97667.88;;;10.53;83.84
5609;BME280;2826;51.354;9.588;2023-03-22T02:35:54;97674.59;;;10.57;83.73
5609;BME280;2826;51.354;9.588;2023-03-22T02:38:43;97666.22;;;10.52;84.04
5609;BME280;2826;51.354;9.588;2023-03-22T02:41:13;97670.72;;;10.48;84.29
5609;BME280;2826;51.354;9.588;2023-03-22T02:43:51;97666.13;;;10.34;84.60
5609;BME280;2826;51.354;9.588;2023-03-22T02:46:27;97653.31;;;10.31;85.03
5609;BME280;2826;51.354;9.588;2023-03-22T02:49:01;97656.56;;;10.36;84.59
5609;BME280;2826;51.354;9.588;2023-03-22T02:51:33;97663.53;;;10.34;84.52
5609;BME280;2826;51.354;9.588;2023-03-22T02:54:08;97661.72;;;10.36;84.56
5609;BME280;2826;51.354;9.588;2023-03-22T02:56:43;97655.00;;;10.32;85.06
5609;BME280;2826;51.354;9.588;2023-03-22T02:59:15;97656.81;;;10.30;84.46
5609;BME280;2826;51.354;9.588;2023-03-22T03:01:47;97648.13;;;10.31;84.74
5609;BME280;2826;51.354;9.588;2023-03-22T03:04:18;97648.00;;;10.34;84.78
5609;BME280;2826;51.354;9.588;2023-03-22T03:06:47;97645.41;;;10.34;84.87
5609;BME280;2826;51.354;9.588;2023-03-22T03:09:18;97645.63;;;10.29;85.02
5609;BME280;2826;51.354;9.588;2023-03-22T03:11:47;97655.22;;;10.27;84.63
5609;BME280;2826;51.354;9.588;2023-03-22T03:14:20;97612.16;;;10.05;84.81
5609;BME280;2826;51.354;9.588;2023-03-22T03:16:52;97656.13;;;10.26;84.91
5609;BME280;2826;51.354;9.588;2023-03-22T03:19:29;97656.34;;;10.22;85.28
5609;BME280;2826;51.354;9.588;2023-03-22T03:22:02;97662.44;;;10.20;85.15
5609;BME280;2826;51.354;9.588;2023-03-22T03:24:35;97659.16;;;10.17;85.19
5609;BME280;2826;51.354;9.588;2023-03-22T03:27:06;97645.16;;;10.21;85.04
5609;BME280;2826;51.354;9.588;2023-03-22T03:29:37;97648.84;;;10.15;84.98
5609;BME280;2826;51.354;9.588;2023-03-22T03:32:08;97642.75;;;10.16;84.73
5609;BME280;2826;51.354;9.588;2023-03-22T03:34:42;97652.38;;;10.14;84.93
5609;BME280;2826;51.354;9.588;2023-03-22T03:37:17;97640.03;;;10.19;84.53
5609;BME280;2826;51.354;9.588;2023-03-22T03:39:51;97639.47;;;10.13;84.98
5609;BME280;2826;51.354;9.588;2023-03-22T03:42:21;97636.25;;;10.07;84.84
5609;BME280;2826;51.354;9.588;2023-03-22T03:44:50;97637.25;;;10.05;84.67
5609;BME280;2826;51.354;9.588;2023-03-22T03:47:17;97635.63;;;10.02;84.51
5609;BME280;2826;51.354;9.588;2023-03-22T03:49:45;97632.19;;;10.02;84.89
5609;BME280;2826;51.354;9.588;2023-03-22T03:52:12;97625.19;;;10.04;84.68
5609;BME280;2826;51.354;9.588;2023-03-22T03:54:39;97623.81;;;9.97;84.67
5609;BME280;2826;51.354;9.588;2023-03-22T03:57:13;97619.44;;;9.97;84.82
5609;BME280;2826;51.354;9.588;2023-03-22T03:59:41;97616.78;;;9.99;84.41
5609;BME280;2826;51.354;9.588;2023-03-22T04:02:16;97613.38;;;9.98;84.73
5609;BME280;2826;51.354;9.588;2023-03-22T04:04:44;97617.34;;;9.86;85.31
5609;BME280;2826;51.354;9.588;2023-03-22T04:07:10;97609.19;;;9.96;85.02
5609;BME280;2826;51.354;9.588;2023-03-22T04:09:38;97609.03;;;9.99;84.38
5609;BME280;2826;51.354;9.588;2023-03-22T04:12:15;97606.50;;;9.97;84.64
5609;BME280;2826;51.354;9.588;2023-03-22T04:14:50;97605.69;;;9.97;84.95
5609;BME280;2826;51.354;9.588;2023-03-22T04:17:22;97603.72;;;10.02;85.13
5609;BME280;2826;51.354;9.588;2023-03-22T04:19:50;97598.47;;;10.03;84.98
5609;BME280;2826;51.354;9.588;2023-03-22T04:22:17;97595.94;;;10.02;84.86
5609;BME280;2826;51.354;9.588;2023-03-22T04:24:45;97598.41;;;10.05;84.78
5609;BME280;2826;51.354;9.588;2023-03-22T04:27:18;97567.94;;;9.91;84.47
5609;BME280;2826;51.354;9.588;2023-03-22T04:29:59;97598.16;;;10.10;84.45
5609;BME280;2826;51.354;9.588;2023-03-22T04:32:46;97600.81;;;10.08;84.31
5609;BME280;2826;51.354;9.588;2023-03-22T04:35:13;97594.81;;;10.07;83.91
5609;BME280;2826;51.354;9.588;2023-03-22T04:37:40;97595.03;;;10.03;83.85
5609;BME280;2826;51.354;9.588;2023-03-22T04:40:14;97599.72;;;9.94;84.18
5609;BME280;2826;51.354;9.588;2023-03-22T04:42:58;97607.78;;;9.88;84.31
5609;BME280;2826;51.354;9.588;2023-03-22T04:45:46;97600.75;;;9.90;84.45
5609;BME280;2826;51.354;9.588;2023-03-22T04:48:17;97600.19;;;9.84;84.49
5609;BME280;2826;51.354;9.588;2023-03-22T04:50:46;97599.44;;;9.82;84.46
5609;BME280;2826;51.354;9.588;2023-03-22T04:53:13;97598.66;;;9.79;84.77
5609;BME280;2826;51.354;9.588;2023-03-22T04:55:42;97603.84;;;9.79;84.82
5609;BME280;2826;51.354;9.588;2023-03-22T04:58:11;97603.94;;;9.78;85.11
5609;BME280;2826;51.354;9.588;2023-03-22T05:00:38;97603.28;;;9.73;85.07
5609;BME280;2826;51.354;9.588;2023-03-22T05:03:07;97603.78;;;9.81;85.30
5609;BME280;2826;51.354;9.588;2023-03-22T05:05:48;97599.66;;;9.77;85.03
5609;BME280;2826;51.354;9.588;2023-03-22T05:08:16;97595.44;;;9.74;84.84
5609;BME280;2826;51.354;9.588;2023-03-22T05:10:45;97600.56;;;9.76;85.37
5609;BME280;2826;51.354;9.588;2023-03-22T05:13:13;97601.41;;;9.76;85.48
5609;BME280;2826;51.354;9.588;2023-03-22T05:15:43;97604.50;;;9.85;85.46
5609;BME280;2826;51.354;9.588;2023-03-22T05:18:12;97593.28;;;9.84;85.52
5609;BME280;2826;51.354;9.588;2023-03-22T05:20:39;97594.34;;;9.80;85.16
5609;BME280;2826;51.354;9.588;2023-03-22T05:23:13;97569.47;;;9.57;85.34
5609;BME280;2826;51.354;9.588;2023-03-22T05:25:49;97602.03;;;9.82;85.16
5609;BME280;2826;51.354;9.588;2023-03-22T05:28:18;97603.66;;;9.84;85.10
5609;BME280;2826;51.354;9.588;2023-03-22T05:31:06;97593.28;;;9.84;85.47
5609;BME280;2826;51.354;9.588;2023-03-22T05:33:42;97583.56;;;9.70;85.33
5609;BME280;2826;51.354;9.588;2023-03-22T05:36:12;97605.25;;;9.87;85.39
5609;BME280;2826;51.354;9.588;2023-03-22T05:38:57;97599.44;;;9.82;85.79
5609;BME280;2826;51.354;9.588;2023-03-22T05:41:23;97608.13;;;9.80;85.57
5609;BME280;2826;51.354;9.588;2023-03-22T05:43:52;97602.03;;;9.82;86.14
5609;BME280;2826;51.354;9.588;2023-03-22T05:46:18;97606.38;;;9.81;85.92
5609;BME280;2826;51.354;9.588;2023-03-22T05:48:59;97611.41;;;9.84;86.54
5609;BME280;2826;51.354;9.588;2023-03-22T05:51:26;97606.09;;;9.87;86.41
5609;BME280;2826;51.354;9.588;2023-03-22T05:53:54;97609.03;;;9.79;86.96
5609;BME280;2826;51.354;9.588;2023-03-22T05:56:25;97596.56;;;9.88;86.66
5609;BME280;2826;51.354;9.588;2023-03-22T05:59:02;97595.59;;;9.90;86.81
5609;BME280;2826;51.354;9.588;2023-03-22T06:01:30;97600.56;;;9.95;86.63
5609;BME280;2826;51.354;9.588;2023-03-22T06:04:13;97589.22;;;9.98;86.68
5609;BME280;2826;51.354;9.588;2023-03-22T06:07:09;97587.47;;;9.98;86.80
5609;BME280;2826;51.354;9.588;2023-03-22T06:09:41;97593.13;;;10.06;86.68
5609;BME280;2826;51.354;9.588;2023-03-22T06:12:14;97588.31;;;9.99;86.84
5609;BME280;2826;51.354;9.588;2023-03-22T06:14:49;97591.94;;;10.14;86.83
5609;BME280;2826;51.354;9.588;2023-03-22T06:17:30;97592.72;;;10.16;86.70
5609;BME280;2826;51.354;9.588;2023-03-22T06:19:57;97591.56;;;10.22;86.33
5609;BME280;2826;51.354;9.588;2023-03-22T06:22:23;97590.81;;;10.19;86.57
5609;BME280;2826;51.354;9.588;2023-03-22T06:24:51;97588.81;;;10.25;86.47
5609;BME280;2826;51.354;9.588;2023-03-22T06:27:27;97581.38;;;10.36;85.96
5609;BME280;2826;51.354;9.588;2023-03-22T06:29:55;97590.06;;;10.35;85.71
5609;BME280;2826;51.354;9.588;2023-03-22T06:32:24;97568.72;;;10.30;85.60
5609;BME280;2826;51.354;9.588;2023-03-22T06:34:52;97583.66;;;10.42;85.67
5609;BME280;2826;51.354;9.588;2023-03-22T06:37:21;97579.63;;;10.37;85.29
5609;BME280;2826;51.354;9.588;2023-03-22T06:39:48;97592.38;;;10.41;85.36
5609;BME280;2826;51.354;9.588;2023-03-22T06:42:16;97585.59;;;10.39;85.23
5609;BME280;2826;51.354;9.588;2023-03-22T06:44:48;97588.19;;;10.39;85.18
5609;BME280;2826;51.354;9.588;2023-03-22T06:47:24;97591.66;;;10.38;85.54
5609;BME280;2826;51.354;9.588;2023-03-22T06:50:00;97592.31;;;10.43;85.05
5609;BME280;2826;51.354;9.588;2023-03-22T06:52:47;97587.81;;;10.47;85.18
5609;BME280;2826;51.354;9.588;2023-03-22T06:55:14;97594.63;;;10.49;85.18
5609;BME280;2826;51.354;9.588;2023-03-22T06:57:41;97585.53;;;10.58;85.39
5609;BME280;2826;51.354;9.588;2023-03-22T07:00:09;97588.69;;;10.65;85.45
5609;BME280;2826;51.354;9.588;2023-03-22T07:02:37;97577.69;;;10.77;85.10
5609;BME280;2826;51.354;9.588;2023-03-22T07:05:29;97597.06;;;11.05;84.64
5609;BME280;2826;51.354;9.588;2023-03-22T07:07:56;97599.19;;;11.15;84.28
5609;BME280;2826;51.354;9.588;2023-03-22T07:10:24;97601.09;;;11.11;83.89
5609;BME280;2826;51.354;9.588;2023-03-22T07:12:51;97592.75;;;11.22;83.38
5609;BME280;2826;51.354;9.588;2023-03-22T07:15:18;97592.44;;;11.28;83.14
5609;BME280;2826;51.354;9.588;2023-03-22T07:17:58;97588.44;;;11.39;83.03
5609;BME280;2826;51.354;9.588;2023-03-22T07:20:25;97589.13;;;11.42;82.96
5609;BME280;2826;51.354;9.588;2023-03-22T07:22:52;97577.16;;;11.56;82.70
5609;BME280;2826;51.354;9.588;2023-03-22T07:25:21;97574.41;;;11.75;82.11
5609;BME280;2826;51.354;9.588;2023-03-22T07:28:00;97569.41;;;11.88;81.55
5609;BME280;2826;51.354;9.588;2023-03-22T07:30:27;97570.50;;;12.00;81.87
5609;BME280;2826;51.354;9.588;2023-03-22T07:32:54;97575.69;;;12.16;81.36
5609;BME280;2826;51.354;9.588;2023-03-22T07:35:22;97576.34;;;12.36;80.71
5609;BME280;2826;51.354;9.588;2023-03-22T07:37:49;97575.00;;;12.45;80.27
5609;BME280;2826;51.354;9.588;2023-03-22T07:40:26;97578.66;;;12.57;79.64
5609;BME280;2826;51.354;9.588;2023-03-22T07:42:54;97569.66;;;12.62;79.05
5609;BME280;2826;51.354;9.588;2023-03-22T07:45:43;97570.47;;;12.63;78.09
5609;BME280;2826;51.354;9.588;2023-03-22T07:48:28;97568.44;;;12.68;77.28
5609;BME280;2826;51.354;9.588;2023-03-22T07:51:17;97575.34;;;12.69;77.07
5609;BME280;2826;51.354;9.588;2023-03-22T07:53:45;97565.84;;;12.68;77.13
5609;BME280;2826;51.354;9.588;2023-03-22T07:56:13;97562.56;;;12.50;76.90
5609;BME280;2826;51.354;9.588;2023-03-22T07:58:40;97566.91;;;12.49;77.33
5609;BME280;2826;51.354;9.588;2023-03-22T08:01:07;97560.56;;;12.39;77.17
5609;BME280;2826;51.354;9.588;2023-03-22T08:03:55;97552.25;;;12.48;76.42
5609;BME280;2826;51.354;9.588;2023-03-22T08:06:41;97560.00;;;12.34;76.64
5609;BME280;2826;51.354;9.588;2023-03-22T08:09:09;97571.09;;;12.21;77.31
5609;BME280;2826;51.354;9.588;2023-03-22T08:11:36;97571.75;;;12.25;77.10
5609;BME280;2826;51.354;9.588;2023-03-22T08:14:03;97565.03;;;12.21;77.30
5609;BME280;2826;51.354;9.588;2023-03-22T08:16:32;97561.25;;;12.26;76.87
5609;BME280;2826;51.354;9.588;2023-03-22T08:19:00;97560.06;;;12.32;76.61
5609;BME280;2826;51.354;9.588;2023-03-22T08:21:29;97567.38;;;12.25;76.94
5609;BME280;2826;51.354;9.588;2023-03-22T08:23:58;97571.69;;;12.10;76.98
5609;BME280;2826;51.354;9.588;2023-03-22T08:26:43;97565.75;;;12.08;77.36
5609;BME280;2826;51.354;9.588;2023-03-22T08:29:22;97566.31;;;11.97;77.01
5609;BME280;2826;51.354;9.588;2023-03-22T08:31:50;97567.13;;;12.14;76.58
5609;BME280;2826;51.354;9.588;2023-03-22T08:34:17;97571.91;;;12.38;76.25
5609;BME280;2826;51.354;9.588;2023-03-22T08:36:44;97571.97;;;12.36;76.17
5609;BME280;2826;51.354;9.588;2023-03-22T08:39:12;97578.81;;;12.53;75.48
5609;BME280;2826;51.354;9.588;2023-03-22T08:42:02;97571.09;;;12.52;75.20
5609;BME280;2826;51.354;9.588;2023-03-22T08:44:29;97551.03;;;12.39;75.22
5609;BME280;2826;51.354;9.588;2023-03-22T08:46:56;97569.66;;;12.62;74.84
5609;BME280;2826;51.354;9.588;2023-03-22T08:49:22;97564.16;;;12.52;74.69
5609;BME280;2826;51.354;9.588;2023-03-22T08:51:58;97558.41;;;12.62;75.04
5609;BME280;2826;51.354;9.588;2023-03-22T08:54:38;97565.34;;;12.77;74.89
5609;BME280;2826;51.354;9.588;2023-03-22T08:57:25;97572.94;;;12.80;74.01
5609;BME280;2826;51.354;9.588;2023-03-22T09:00:19;97571.75;;;12.86;73.96
5609;BME280;2826;51.354;9.588;2023-03-22T09:02:52;97561.16;;;12.89;73.45
5609;BME280;2826;51.354;9.588;2023-03-22T09:05:19;97554.38;;;12.87;73.82
5609;BME280;2826;51.354;9.588;2023-03-22T09:07:45;97541.00;;;13.07;72.86
5609;BME280;2826;51.354;9.588;2023-03-22T09:10:25;97544.75;;;13.18;73.03
5609;BME280;2826;51.354;9.588;2023-03-22T09:12:52;97538.78;;;13.30;72.57
5609;BME280;2826;51.354;9.588;2023-03-22T09:15:19;97530.41;;;13.25;71.82
5609;BME280;2826;51.354;9.588;2023-03-22T09:17:58;97467.88;;;12.98;71.49
5609;BME280;2826;51.354;9.588;2023-03-22T09:20:25;97521.75;;;13.39;71.46
5609;BME280;2826;51.354;9.588;2023-03-22T09:22:53;97524.06;;;13.44;71.27
5609;BME280;2826;51.354;9.588;2023-03-22T09:25:21;97496.38;;;13.28;71.34
5609;BME280;2826;51.354;9.588;2023-03-22T09:27:50;97509.78;;;13.51;71.15
5609;BME280;2826;51.354;9.588;2023-03-22T09:30:17;97508.75;;;13.54;70.46
5609;BME280;2826;51.354;9.588;2023-03-22T09:32:44;97501.69;;;13.83;70.48
5609;BME280;2826;51.354;9.588;2023-03-22T09:35:13;97504.38;;;13.82;69.53
5609;BME280;2826;51.354;9.588;2023-03-22T09:37:52;97502.38;;;13.72;68.88
5609;BME280;2826;51.354;9.588;2023-03-22T09:40:24;97480.72;;;13.72;68.80
5609;BME280;2826;51.354;9.588;2023-03-22T09:42:57;97486.06;;;13.83;68.33
5609;BME280;2826;51.354;9.588;2023-03-22T09:45:29;97487.25;;;13.92;67.68
5609;BME280;2826;51.354;9.588;2023-03-22T09:48:03;97494.88;;;14.49;66.60
5609;BME280;2826;51.354;9.588;2023-03-22T09:50:43;97476.81;;;14.46;65.76
5609;BME280;2826;51.354;9.588;2023-03-22T09:53:13;97463.31;;;14.93;65.41
5609;BME280;2826;51.354;9.588;2023-03-22T09:55:42;97467.66;;;15.05;64.39
5609;BME280;2826;51.354;9.588;2023-03-22T09:58:19;97457.66;;;15.36;63.43
5609;BME280;2826;51.354;9.588;2023-03-22T10:00:54;97475.59;;;15.54;62.28
5609;BME280;2826;51.354;9.588;2023-03-22T10:03:32;97460.69;;;15.67;61.40
5609;BME280;2826;51.354;9.588;2023-03-22T10:06:04;97455.13;;;15.48;60.84
5609;BME280;2826;51.354;9.588;2023-03-22T10:08:43;97448.69;;;15.40;61.45
5609;BME280;2826;51.354;9.588;2023-03-22T10:11:20;97445.66;;;15.34;61.76
5609;BME280;2826;51.354;9.588;2023-03-22T10:13:55;97458.34;;;15.51;60.69
5609;BME280;2826;51.354;9.588;2023-03-22T10:16:27;97453.13;;;15.51;60.77
5609;BME280;2826;51.354;9.588;2023-03-22T10:19:03;97463.69;;;15.50;60.13
5609;BME280;2826;51.354;9.588;2023-03-22T10:21:31;97447.13;;;15.62;59.94
5609;BME280;2826;51.354;9.588;2023-03-22T10:24:02;97460.38;;;15.72;58.82
5609;BME280;2826;51.354;9.588;2023-03-22T10:26:33;97456.31;;;15.68;58.61
5609;BME280;2826;51.354;9.588;2023-03-22T10:29:10;97433.69;;;15.55;57.91
5609;BME280;2826;51.354;9.588;2023-03-22T10:31:41;97463.69;;;15.74;58.30
5609;BME280;2826;51.354;9.588;2023-03-22T10:34:15;97451.31;;;15.65;56.75
5609;BME280;2826;51.354;9.588;2023-03-22T10:36:45;97460.59;;;15.69;56.32
5609;BME280;2826;51.354;9.588;2023-03-22T10:39:23;97464.28;;;15.66;55.80
5609;BME280;2826;51.354;9.588;2023-03-22T10:41:51;97465.25;;;15.77;55.60
5609;BME280;2826;51.354;9.588;2023-03-22T10:44:22;97466.03;;;16.03;56.58
5609;BME280;2826;51.354;9.588;2023-03-22T10:46:51;97462.09;;;16.33;56.20
5609;BME280;2826;51.354;9.588;2023-03-22T10:49:22;97468.81;;;16.61;54.05
5609;BME280;2826;51.354;9.588;2023-03-22T10:51:53;97468.53;;;16.64;53.17
5609;BME280;2826;51.354;9.588;2023-03-22T10:54:23;97447.50;;;16.54;53.82
5609;BME280;2826;51.354;9.588;2023-03-22T10:56:50;97472.81;;;16.53;53.32
5609;BME280;2826;51.354;9.588;2023-03-22T10:59:47;97478.59;;;16.34;53.86
5609;BME280;2826;51.354;9.588;2023-03-22T11:02:18;97476.88;;;16.10;54.14
5609;BME280;2826;51.354;9.588;2023-03-22T11:04:47;97451.78;;;16.08;54.17
5609;BME280;2826;51.354;9.588;2023-03-22T11:07:26;97465.41;;;16.00;53.52
5609;BME280;2826;51.354;9.588;2023-03-22T11:10:12;97468.06;;;16.11;53.43
5609;BME280;2826;51.354;9.588;2023-03-22T11:12:49;97475.81;;;16.49;53.70
5609;BME280;2826;51.354;9.588;2023-03-22T11:15:22;97473.19;;;16.49;53.21
5609;BME280;2826;51.354;9.588;2023-03-22T11:17:49;97481.16;;;16.58;52.40
5609;BME280;2826;51.354;9.588;2023-03-22T11:20:18;97471.75;;;16.44;52.38
5609;BME280;2826;51.354;9.588;2023-03-22T11:22:46;97471.88;;;16.54;52.85
5609;BME280;2826;51.354;9.588;2023-03-22T11:25:16;97461.50;;;16.53;52.69
5609;BME280;2826;51.354;9.588;2023-03-22T11:27:50;97456.91;;;16.79;53.00
5609;BME280;2826;51.354;9.588;2023-03-22T11:30:21;97449.91;;;16.91;52.95
5609;BME280;2826;51.354;9.588;2023-03-22T11:32:48;97443.81;;;17.02;52.64
5609;BME280;2826;51.354;9.588;2023-03-22T11:35:25;97446.06;;;16.84;52.60
5609;BME280;2826;51.354;9.588;2023-03-22T11:37:53;97440.75;;;16.74;53.14
5609;BME280;2826;51.354;9.588;2023-03-22T11:40:21;97420.84;;;16.60;53.77
5609;BME280;2826;51.354;9.588;2023-03-22T11:42:52;97442.72;;;16.48;53.31
5609;BME280;2826;51.354;9.588;2023-03-22T11:45:24;97436.41;;;16.50;54.23
5609;BME280;2826;51.354;9.588;2023-03-22T11:47:52;97426.56;;;16.65;53.88
5609;BME280;2826;51.354;9.588;2023-03-22T11:50:26;97429.50;;;16.49;54.02
5609;BME280;2826;51.354;9.588;2023-03-22T11:52:54;97407.03;;;16.46;54.60
5609;BME280;2826;51.354;9.588;2023-03-22T11:55:22;97408.50;;;16.62;53.94
5609;BME280;2826;51.354;9.588;2023-03-22T11:57:49;97415.25;;;16.76;53.61
5609;BME280;2826;51.354;9.588;2023-03-22T12:00:19;97410.16;;;16.63;53.37
5609;BME280;2826;51.354;9.588;2023-03-22T12:02:51;97403.94;;;16.53;53.64
5609;BME280;2826;51.354;9.588;2023-03-22T12:05:21;97417.28;;;16.50;53.49
5609;BME280;2826;51.354;9.588;2023-03-22T12:07:53;97409.53;;;16.59;53.15
5609;BME280;2826;51.354;9.588;2023-03-22T12:10:25;97415.63;;;16.60;54.01
5609;BME280;2826;51.354;9.588;2023-03-22T12:12:58;97420.03;;;16.71;52.71
5609;BME280;2826;51.354;9.588;2023-03-22T12:15:28;97417.19;;;16.74;53.00
5609;BME280;2826;51.354;9.588;2023-03-22T12:17:59;97422.53;;;16.72;51.61
5609;BME280;2826;51.354;9.588;2023-03-22T12:20:36;97425.75;;;16.65;52.14
5609;BME280;2826;51.354;9.588;2023-03-22T12:23:11;97424.66;;;16.67;51.73
5609;BME280;2826;51.354;9.588;2023-03-22T12:25:40;97429.19;;;16.88;52.46
5609;BME280;2826;51.354;9.588;2023-03-22T12:28:13;97435.38;;;16.76;52.18
5609;BME280;2826;51.354;9.588;2023-03-22T12:30:43;97423.22;;;16.75;52.62
5609;BME280;2826;51.354;9.588;2023-03-22T12:33:18;97427.75;;;16.84;52.50
5609;BME280;2826;51.354;9.588;2023-03-22T12:35:50;97427.66;;;16.97;51.47
5609;BME280;2826;51.354;9.588;2023-03-22T12:38:24;97423.22;;;16.97;51.23
5609;BME280;2826;51.354;9.588;2023-03-22T12:40:56;97416.31;;;17.31;51.48
5609;BME280;2826;51.354;9.588;2023-03-22T12:43:35;97415.59;;;17.40;50.82
5609;BME280;2826;51.354;9.588;2023-03-22T12:46:04;97424.44;;;17.72;50.89
5609;BME280;2826;51.354;9.588;2023-03-22T12:48:35;97418.22;;;17.73;50.47
5609;BME280;2826;51.354;9.588;2023-03-22T12:51:05;97402.16;;;17.66;48.58
5609;BME280;2826;51.354;9.588;2023-03-22T12:53:34;97420.38;;;17.35;48.68
5609;BME280;2826;51.354;9.588;2023-03-22T12:56:09;97411.03;;;17.42;49.01
5609;BME280;2826;51.354;9.588;2023-03-22T12:58:36;97408.97;;;17.90;48.70
5609;BME280;2826;51.354;9.588;2023-03-22T13:01:11;97409.19;;;17.98;48.56
5609;BME280;2826;51.354;9.588;2023-03-22T13:03:46;97401.19;;;17.79;48.06
5609;BME280;2826;51.354;9.588;2023-03-22T13:06:30;97404.63;;;18.00;48.39
5609;BME280;2826;51.354;9.588;2023-03-22T13:09:11;97402.00;;;18.00;48.26
5609;BME280;2826;51.354;9.588;2023-03-22T13:11:41;97397.06;;;17.65;47.41
5609;BME280;2826;51.354;9.588;2023-03-22T13:14:11;97400.00;;;17.71;47.60
5609;BME280;2826;51.354;9.588;2023-03-22T13:16:47;97395.63;;;17.60;47.04
5609;BME280;2826;51.354;9.588;2023-03-22T13:19:34;97395.34;;;17.75;47.16
5609;BME280;2826;51.354;9.588;2023-03-22T13:22:17;97394.78;;;17.93;45.48
5609;BME280;2826;51.354;9.588;2023-03-22T13:25:05;97382.25;;;17.96;45.18
5609;BME280;2826;51.354;9.588;2023-03-22T13:27:34;97380.34;;;17.98;45.33
5609;BME280;2826;51.354;9.588;2023-03-22T13:30:03;97371.56;;;17.88;45.64
5609;BME280;2826;51.354;9.588;2023-03-22T13:32:34;97369.63;;;17.90;45.34
5609;BME280;2826;51.354;9.588;2023-03-22T13:35:16;97380.78;;;17.82;45.56
5609;BME280;2826;51.354;9.588;2023-03-22T13:37:47;97377.75;;;17.87;45.50
5609;BME280;2826;51.354;9.588;2023-03-22T13:40:26;97356.53;;;17.90;44.85
5609;BME280;2826;51.354;9.588;2023-03-22T13:43:07;97361.00;;;17.99;44.81
5609;BME280;2826;51.354;9.588;2023-03-22T13:45:35;97364.19;;;17.82;45.05
5609;BME280;2826;51.354;9.588;2023-03-22T13:48:04;97351.16;;;17.70;45.70
5609;BME280;2826;51.354;9.588;2023-03-22T13:50:33;97360.25;;;17.87;45.34
5609;BME280;2826;51.354;9.588;2023-03-22T13:53:03;97355.88;;;17.76;45.53